Time,TemperatureF,DewpointF,PressureIn,WindDirection,WindDirectionDegrees,WindSpeedMPH,WindSpeedGustMPH,Humidity,HourlyPrecipIn,Conditions,Clouds,dailyrainin,SoftwareType,DateUTC
2013-03-24 00:02:00,26.4,20.8,30.24,NNW,345,0.0,3.0,79,0.00,,,0.00,meteohub,2013-03-24 05:02:00,
2013-03-24 00:07:00,26.2,20.7,30.24,NNW,345,0.0,2.0,79,0.00,,,0.00,meteohub,2013-03-24 05:07:00,
2013-03-24 00:12:00,25.9,20.3,30.24,NNW,346,1.0,2.0,79,0.00,,,0.00,meteohub,2013-03-24 05:12:00,
2013-03-24 00:17:00,25.5,19.9,30.23,NNW,346,0.0,2.0,79,0.00,,,0.00,meteohub,2013-03-24 05:17:00,
2013-03-24 00:22:00,25.2,19.9,30.23,NNW,346,0.0,2.0,80,0.00,,,0.00,meteohub,2013-03-24 05:22:00,
2013-03-24 00:27:00,25.0,19.8,30.23,NNW,345,0.0,2.0,80,0.00,,,0.00,meteohub,2013-03-24 05:27:00,
2013-03-24 00:32:00,25.0,19.9,30.23,NNW,345,2.0,2.0,81,0.00,,,0.00,meteohub,2013-03-24 05:32:00,
2013-03-24 00:37:00,24.8,19.8,30.23,NNW,346,0.0,3.0,81,0.00,,,0.00,meteohub,2013-03-24 05:37:00,
2013-03-24 00:42:00,24.8,20.1,30.23,NNW,345,0.0,3.0,82,0.00,,,0.00,meteohub,2013-03-24 05:42:00,
2013-03-24 00:47:00,25.0,20.3,30.23,NNW,345,0.0,3.0,82,0.00,,,0.00,meteohub,2013-03-24 05:47:00,
2013-03-24 00:52:00,25.0,20.3,30.23,NNW,346,0.0,2.0,82,0.00,,,0.00,meteohub,2013-03-24 05:52:00,
2013-03-24 00:57:00,25.0,20.3,30.22,NNW,346,0.0,2.0,82,0.00,,,0.00,meteohub,2013-03-24 05:57:00,
2013-03-24 01:02:00,25.0,20.3,30.22,NNW,346,0.0,1.0,82,0.00,,,0.00,meteohub,2013-03-24 06:02:00,
2013-03-24 01:07:00,25.0,20.5,30.22,NNW,345,0.0,1.0,83,0.00,,,0.00,meteohub,2013-03-24 06:07:00,
2013-03-24 01:12:00,25.2,20.7,30.22,NNW,345,0.0,2.0,83,0.00,,,0.00,meteohub,2013-03-24 06:12:00,
2013-03-24 01:17:00,25.3,20.8,30.22,NNW,346,0.0,2.0,83,0.00,,,0.00,meteohub,2013-03-24 06:17:00,
2013-03-24 01:22:00,25.5,21.0,30.22,NNW,346,0.0,3.0,83,0.00,,,0.00,meteohub,2013-03-24 06:22:00,
2013-03-24 01:27:00,25.5,20.8,30.22,NNW,345,2.0,3.0,82,0.00,,,0.00,meteohub,2013-03-24 06:27:00,
2013-03-24 01:32:00,25.7,21.0,30.22,NNW,346,3.0,3.0,82,0.00,,,0.00,meteohub,2013-03-24 06:32:00,
2013-03-24 01:37:00,25.7,21.0,30.22,NNW,346,0.0,3.0,82,0.00,,,0.00,meteohub,2013-03-24 06:37:00,
2013-03-24 01:42:00,25.7,21.0,30.22,NNW,346,0.0,3.0,82,0.00,,,0.00,meteohub,2013-03-24 06:42:00,
2013-03-24 01:47:00,25.9,21.2,30.21,NNW,346,0.0,3.0,82,0.00,,,0.00,meteohub,2013-03-24 06:47:00,
2013-03-24 01:52:00,25.9,21.2,30.22,NNW,346,0.0,3.0,82,0.00,,,0.00,meteohub,2013-03-24 06:52:00,
2013-03-24 01:57:00,25.9,21.2,30.21,NNW,346,0.0,2.0,82,0.00,,,0.00,meteohub,2013-03-24 06:57:00,
2013-03-24 02:02:00,25.9,21.2,30.21,NNW,345,2.0,2.0,82,0.00,,,0.00,meteohub,2013-03-24 07:02:00,
2013-03-24 02:07:00,26.1,21.4,30.21,NNW,346,0.0,3.0,82,0.00,,,0.00,meteohub,2013-03-24 07:07:00,
2013-03-24 02:12:00,26.1,21.0,30.21,NNW,346,0.0,3.0,81,0.00,,,0.00,meteohub,2013-03-24 07:12:00,
2013-03-24 02:17:00,26.1,21.0,30.21,NNW,345,0.0,3.0,81,0.00,,,0.00,meteohub,2013-03-24 07:17:00,
2013-03-24 02:22:00,26.1,21.0,30.21,NNW,345,0.0,2.0,81,0.00,,,0.00,meteohub,2013-03-24 07:22:00,
2013-03-24 02:27:00,26.1,21.0,30.21,NNW,346,0.0,0.0,81,0.00,,,0.00,meteohub,2013-03-24 07:27:00,
2013-03-24 02:32:00,25.9,20.8,30.21,NNW,345,0.0,0.0,81,0.00,,,0.00,meteohub,2013-03-24 07:32:00,
2013-03-24 02:37:00,25.9,20.8,30.21,NNW,346,0.0,0.0,81,0.00,,,0.00,meteohub,2013-03-24 07:37:00,
2013-03-24 02:42:00,25.7,20.7,30.21,NNW,345,0.0,1.0,81,0.00,,,0.00,meteohub,2013-03-24 07:42:00,
2013-03-24 02:47:00,25.7,20.7,30.21,NNW,346,0.0,1.0,81,0.00,,,0.00,meteohub,2013-03-24 07:47:00,
2013-03-24 02:52:00,25.9,20.8,30.21,NNW,346,0.0,1.0,81,0.00,,,0.00,meteohub,2013-03-24 07:52:00,
2013-03-24 02:57:00,25.9,20.8,30.21,NNW,346,0.0,1.0,81,0.00,,,0.00,meteohub,2013-03-24 07:57:00,
2013-03-24 03:02:00,25.9,20.8,30.21,NNW,346,0.0,0.0,81,0.00,,,0.00,meteohub,2013-03-24 08:02:00,
2013-03-24 03:07:00,26.1,21.0,30.21,NNW,346,0.0,0.0,81,0.00,,,0.00,meteohub,2013-03-24 08:07:00,
2013-03-24 03:12:00,26.1,21.0,30.20,NNW,346,0.0,2.0,81,0.00,,,0.00,meteohub,2013-03-24 08:12:00,
2013-03-24 03:17:00,26.1,21.0,30.20,NNW,346,0.0,2.0,81,0.00,,,0.00,meteohub,2013-03-24 08:17:00,
2013-03-24 03:22:00,26.1,21.0,30.20,NNW,346,0.0,2.0,81,0.00,,,0.00,meteohub,2013-03-24 08:22:00,
2013-03-24 03:27:00,26.1,21.0,30.19,NNW,345,0.0,2.0,81,0.00,,,0.00,meteohub,2013-03-24 08:27:00,
2013-03-24 03:32:00,25.9,20.8,30.19,NNW,345,0.0,0.0,81,0.00,,,0.00,meteohub,2013-03-24 08:32:00,
2013-03-24 03:37:00,25.7,20.7,30.19,NNW,346,0.0,0.0,81,0.00,,,0.00,meteohub,2013-03-24 08:37:00,
2013-03-24 03:42:00,25.5,20.5,30.19,NNW,346,0.0,2.0,81,0.00,,,0.00,meteohub,2013-03-24 08:42:00,
2013-03-24 03:47:00,25.7,21.0,30.19,NNW,345,0.0,2.0,82,0.00,,,0.00,meteohub,2013-03-24 08:47:00,
2013-03-24 03:52:00,25.9,21.2,30.19,NNW,346,0.0,3.0,82,0.00,,,0.00,meteohub,2013-03-24 08:52:00,
2013-03-24 03:57:00,26.1,21.4,30.19,NNW,346,0.0,3.0,82,0.00,,,0.00,meteohub,2013-03-24 08:57:00,
2013-03-24 04:03:00,26.1,21.4,30.19,NNW,345,2.0,3.0,82,0.00,,,0.00,meteohub,2013-03-24 09:03:00,
2013-03-24 04:08:00,26.2,21.2,30.18,NNW,345,0.0,3.0,81,0.00,,,0.00,meteohub,2013-03-24 09:08:00,
2013-03-24 04:13:00,26.2,21.2,30.18,NNW,345,1.0,3.0,81,0.00,,,0.00,meteohub,2013-03-24 09:13:00,
2013-03-24 04:18:00,26.2,21.2,30.18,NNW,345,1.0,3.0,81,0.00,,,0.00,meteohub,2013-03-24 09:18:00,
2013-03-24 04:23:00,26.2,21.2,30.18,NNW,346,2.0,4.0,81,0.00,,,0.00,meteohub,2013-03-24 09:23:00,
2013-03-24 04:28:00,26.2,21.2,30.18,NNW,346,0.0,4.0,81,0.00,,,0.00,meteohub,2013-03-24 09:28:00,
2013-03-24 04:33:00,26.2,20.8,30.18,NNW,345,1.0,4.0,80,0.00,,,0.00,meteohub,2013-03-24 09:33:00,
2013-03-24 04:38:00,26.2,20.8,30.18,NNW,347,0.0,4.0,80,0.00,,,0.00,meteohub,2013-03-24 09:38:00,
2013-03-24 04:43:00,26.1,20.7,30.18,NNW,346,3.0,5.0,80,0.00,,,0.00,meteohub,2013-03-24 09:43:00,
2013-03-24 04:48:00,26.1,20.7,30.18,North,355,2.0,5.0,80,0.00,,,0.00,meteohub,2013-03-24 09:48:00,
2013-03-24 04:53:00,26.1,20.7,30.18,North,355,1.0,4.0,80,0.00,,,0.00,meteohub,2013-03-24 09:53:00,
2013-03-24 04:58:00,26.1,20.7,30.18,North,0,2.0,5.0,80,0.00,,,0.00,meteohub,2013-03-24 09:58:00,
2013-03-24 05:03:00,25.9,20.5,30.18,NNE,21,2.0,5.0,80,0.00,,,0.00,meteohub,2013-03-24 10:03:00,
2013-03-24 05:08:00,25.9,20.5,30.18,NNE,22,0.0,6.0,80,0.00,,,0.00,meteohub,2013-03-24 10:08:00,
2013-03-24 05:13:00,25.9,20.5,30.18,NNE,22,0.0,6.0,80,0.00,,,0.00,meteohub,2013-03-24 10:13:00,
2013-03-24 05:18:00,25.9,20.5,30.17,NNE,22,0.0,6.0,80,0.00,,,0.00,meteohub,2013-03-24 10:18:00,
2013-03-24 05:23:00,25.7,20.5,30.17,NNE,22,0.0,4.0,80,0.00,,,0.00,meteohub,2013-03-24 10:23:00,
2013-03-24 05:28:00,25.7,20.5,30.17,NNE,23,2.0,4.0,80,0.00,,,0.00,meteohub,2013-03-24 10:28:00,
2013-03-24 05:33:00,25.5,20.3,30.17,NNE,23,1.0,4.0,80,0.00,,,0.00,meteohub,2013-03-24 10:33:00,
2013-03-24 05:38:00,25.5,20.3,30.17,NNE,22,0.0,5.0,80,0.00,,,0.00,meteohub,2013-03-24 10:38:00,
2013-03-24 05:43:00,25.5,20.3,30.17,NNE,23,0.0,5.0,80,0.00,,,0.00,meteohub,2013-03-24 10:43:00,
2013-03-24 05:48:00,25.5,20.5,30.17,NNE,22,2.0,4.0,81,0.00,,,0.00,meteohub,2013-03-24 10:48:00,
2013-03-24 05:53:00,25.5,20.5,30.18,NNE,23,0.0,2.0,81,0.00,,,0.00,meteohub,2013-03-24 10:53:00,
2013-03-24 05:58:00,25.5,20.5,30.17,NNE,23,0.0,2.0,81,0.00,,,0.00,meteohub,2013-03-24 10:58:00,
2013-03-24 06:03:00,25.5,20.5,30.18,NNE,23,0.0,2.0,81,0.00,,,0.00,meteohub,2013-03-24 11:03:00,
2013-03-24 06:08:00,25.5,20.5,30.18,NNE,22,0.0,1.0,81,0.00,,,0.00,meteohub,2013-03-24 11:08:00,
2013-03-24 06:13:00,25.7,20.7,30.18,NNE,23,0.0,2.0,81,0.00,,,0.00,meteohub,2013-03-24 11:13:00,
2013-03-24 06:18:00,25.7,20.7,30.18,NNE,23,0.0,2.0,81,0.00,,,0.00,meteohub,2013-03-24 11:18:00,
2013-03-24 06:23:00,25.7,20.7,30.18,NNE,22,0.0,2.0,81,0.00,,,0.00,meteohub,2013-03-24 11:23:00,
2013-03-24 06:29:00,25.9,20.8,30.18,NNE,22,2.0,3.0,81,0.00,,,0.00,meteohub,2013-03-24 11:29:00,
2013-03-24 06:34:00,25.9,20.8,30.18,NNE,22,0.0,3.0,81,0.00,,,0.00,meteohub,2013-03-24 11:34:00,
2013-03-24 06:39:00,25.9,20.8,30.17,NNE,23,0.0,3.0,81,0.00,,,0.00,meteohub,2013-03-24 11:39:00,
2013-03-24 06:44:00,26.1,21.0,30.17,NNE,22,3.0,3.0,81,0.00,,,0.00,meteohub,2013-03-24 11:44:00,
2013-03-24 06:49:00,26.2,21.2,30.17,NNE,23,2.0,4.0,81,0.00,,,0.00,meteohub,2013-03-24 11:49:00,
2013-03-24 06:54:00,26.2,21.6,30.17,NNE,23,2.0,4.0,82,0.00,,,0.00,meteohub,2013-03-24 11:54:00,
2013-03-24 06:59:00,26.4,21.7,30.18,NNE,28,2.0,4.0,82,0.00,,,0.00,meteohub,2013-03-24 11:59:00,
2013-03-24 07:04:00,26.4,21.7,30.18,NNE,27,0.0,5.0,82,0.00,,,0.00,meteohub,2013-03-24 12:04:00,
2013-03-24 07:09:00,26.6,21.9,30.18,NNE,28,1.0,5.0,82,0.00,,,0.00,meteohub,2013-03-24 12:09:00,
2013-03-24 07:14:00,26.8,22.3,30.18,NE,34,2.0,5.0,83,0.00,,,0.00,meteohub,2013-03-24 12:14:00,
2013-03-24 07:19:00,26.8,22.3,30.18,NE,34,1.0,5.0,83,0.00,,,0.00,meteohub,2013-03-24 12:19:00,
2013-03-24 07:24:00,26.8,22.6,30.18,NE,34,0.0,5.0,84,0.00,,,0.00,meteohub,2013-03-24 12:24:00,
2013-03-24 07:29:00,27.0,22.8,30.18,NE,41,2.0,5.0,84,0.00,,,0.00,meteohub,2013-03-24 12:29:00,
2013-03-24 07:34:00,27.0,22.8,30.18,NE,42,1.0,5.0,84,0.00,,,0.00,meteohub,2013-03-24 12:34:00,
2013-03-24 07:39:00,27.0,23.0,30.18,NE,42,2.0,5.0,85,0.00,,,0.00,meteohub,2013-03-24 12:39:00,
2013-03-24 07:44:00,27.0,23.0,30.18,NE,42,2.0,5.0,85,0.00,,,0.00,meteohub,2013-03-24 12:44:00,
2013-03-24 07:49:00,27.0,23.4,30.18,NE,42,0.0,5.0,86,0.00,,,0.00,meteohub,2013-03-24 12:49:00,
2013-03-24 07:54:00,27.1,23.5,30.18,NE,42,0.0,4.0,86,0.00,,,0.00,meteohub,2013-03-24 12:54:00,
2013-03-24 07:59:00,27.1,23.5,30.18,NE,42,3.0,3.0,86,0.00,,,0.00,meteohub,2013-03-24 12:59:00,
2013-03-24 08:04:00,27.1,23.5,30.18,NE,42,0.0,3.0,86,0.00,,,0.00,meteohub,2013-03-24 13:04:00,
2013-03-24 08:09:00,27.3,23.7,30.17,NE,42,0.0,4.0,86,0.00,,,0.00,meteohub,2013-03-24 13:09:00,
2013-03-24 08:14:00,27.1,23.7,30.17,NE,42,2.0,4.0,87,0.00,,,0.00,meteohub,2013-03-24 13:14:00,
2013-03-24 08:19:00,27.1,23.7,30.17,NE,42,0.0,3.0,87,0.00,,,0.00,meteohub,2013-03-24 13:19:00,
2013-03-24 08:24:00,27.3,23.9,30.17,NE,42,0.0,3.0,87,0.00,,,0.00,meteohub,2013-03-24 13:24:00,
2013-03-24 08:29:00,27.3,23.9,30.17,NE,42,0.0,3.0,87,0.00,,,0.00,meteohub,2013-03-24 13:29:00,
2013-03-24 08:34:00,27.5,24.1,30.16,NE,42,0.0,3.0,87,0.00,,,0.00,meteohub,2013-03-24 13:34:00,
2013-03-24 08:39:00,27.7,24.3,30.16,NE,42,3.0,3.0,87,0.00,,,0.00,meteohub,2013-03-24 13:39:00,
2013-03-24 08:44:00,27.9,24.4,30.16,NE,42,3.0,4.0,87,0.00,,,0.00,meteohub,2013-03-24 13:44:00,
2013-03-24 08:49:00,28.0,24.6,30.16,NE,42,3.0,4.0,87,0.00,,,0.00,meteohub,2013-03-24 13:49:00,
2013-03-24 08:54:00,28.0,24.6,30.16,NE,45,3.0,4.0,87,0.00,,,0.00,meteohub,2013-03-24 13:54:00,
2013-03-24 08:59:00,28.2,24.8,30.16,NE,44,4.0,5.0,87,0.00,,,0.00,meteohub,2013-03-24 13:59:00,
2013-03-24 09:04:00,28.2,24.8,30.15,NE,47,2.0,5.0,87,0.00,,,0.00,meteohub,2013-03-24 14:04:00,
2013-03-24 09:09:00,28.2,24.8,30.15,NE,49,5.0,6.0,87,0.00,,,0.00,meteohub,2013-03-24 14:09:00,
2013-03-24 09:14:00,28.6,25.2,30.15,ENE,61,3.0,6.0,87,0.00,,,0.00,meteohub,2013-03-24 14:14:00,
2013-03-24 09:19:00,28.6,25.0,30.15,ENE,78,3.0,7.0,86,0.00,,,0.00,meteohub,2013-03-24 14:19:00,
2013-03-24 09:24:00,28.6,25.0,30.15,East,79,5.0,8.0,86,0.00,,,0.00,meteohub,2013-03-24 14:24:00,
2013-03-24 09:30:00,28.8,26.8,30.15,ENE,71,4.0,8.0,92,0.00,,,0.00,meteohub,2013-03-24 14:30:00,
2013-03-24 09:35:00,28.9,25.0,30.15,East,80,5.0,8.0,85,0.00,,,0.00,meteohub,2013-03-24 14:35:00,
2013-03-24 09:40:00,29.3,25.2,30.15,East,80,5.0,8.0,84,0.00,,,0.00,meteohub,2013-03-24 14:40:00,
2013-03-24 09:45:00,29.7,25.2,30.15,East,86,6.0,9.0,83,0.00,,,0.00,meteohub,2013-03-24 14:45:00,
2013-03-24 09:50:00,29.8,25.0,30.15,East,82,3.0,9.0,82,0.00,,,0.00,meteohub,2013-03-24 14:50:00,
2013-03-24 09:55:00,30.0,25.0,30.15,ENE,76,2.0,9.0,81,0.00,,,0.00,meteohub,2013-03-24 14:55:00,
2013-03-24 10:00:00,30.4,24.6,30.15,East,92,3.0,9.0,79,0.00,,,0.00,meteohub,2013-03-24 15:00:00,
2013-03-24 10:05:00,30.6,24.8,30.15,East,95,5.0,9.0,79,0.00,,,0.00,meteohub,2013-03-24 15:05:00,
2013-03-24 10:10:00,30.9,24.6,30.15,East,86,3.0,9.0,77,0.00,,,0.00,meteohub,2013-03-24 15:10:00,
2013-03-24 10:15:00,30.9,24.3,30.15,East,81,4.0,9.0,76,0.00,,,0.00,meteohub,2013-03-24 15:15:00,
2013-03-24 10:20:00,31.1,24.1,30.15,East,101,3.0,10.0,75,0.01,,,0.01,meteohub,2013-03-24 15:20:00,
2013-03-24 10:25:00,31.6,24.3,30.15,East,98,3.0,10.0,74,0.01,,,0.01,meteohub,2013-03-24 15:25:00,
2013-03-24 10:30:00,31.8,23.9,30.14,ESE,116,4.0,10.0,72,0.01,,,0.01,meteohub,2013-03-24 15:30:00,
2013-03-24 10:35:00,32.2,23.5,30.14,ENE,67,11.0,11.0,70,0.01,,,0.01,meteohub,2013-03-24 15:35:00,
2013-03-24 10:40:00,32.0,22.6,30.14,East,97,6.0,12.0,68,0.01,,,0.01,meteohub,2013-03-24 15:40:00,
2013-03-24 10:45:00,32.2,22.5,30.14,East,80,8.0,12.0,67,0.01,,,0.01,meteohub,2013-03-24 15:45:00,
2013-03-24 10:50:00,32.4,22.3,30.14,East,89,5.0,14.0,66,0.01,,,0.01,meteohub,2013-03-24 15:50:00,
2013-03-24 10:55:00,32.5,22.5,30.14,ESE,109,5.0,14.0,66,0.01,,,0.01,meteohub,2013-03-24 15:55:00,
2013-03-24 11:00:00,32.5,21.4,30.14,ESE,123,4.0,14.0,63,0.01,,,0.01,meteohub,2013-03-24 16:00:00,
2013-03-24 11:05:00,32.5,21.4,30.14,East,93,4.0,12.0,63,0.01,,,0.01,meteohub,2013-03-24 16:05:00,
2013-03-24 11:10:00,32.2,21.0,30.14,East,90,9.0,13.0,63,0.01,,,0.01,meteohub,2013-03-24 16:10:00,
2013-03-24 11:15:00,32.2,21.4,30.13,East,88,6.0,13.0,64,0.01,,,0.01,meteohub,2013-03-24 16:15:00,
2013-03-24 11:20:00,32.4,21.6,30.13,ESE,110,5.0,14.0,64,0.00,,,0.01,meteohub,2013-03-24 16:20:00,
2013-03-24 11:25:00,32.7,21.6,30.13,East,82,8.0,14.0,63,0.00,,,0.01,meteohub,2013-03-24 16:25:00,
2013-03-24 11:30:00,32.7,21.2,30.13,East,82,6.0,11.0,62,0.00,,,0.01,meteohub,2013-03-24 16:30:00,
2013-03-24 11:35:00,32.7,21.6,30.13,ENE,68,9.0,16.0,63,0.00,,,0.01,meteohub,2013-03-24 16:35:00,
2013-03-24 11:40:00,32.5,21.4,30.13,ENE,71,4.0,16.0,63,0.00,,,0.01,meteohub,2013-03-24 16:40:00,
2013-03-24 11:45:00,32.5,21.4,30.13,ENE,78,6.0,16.0,63,0.00,,,0.01,meteohub,2013-03-24 16:45:00,
2013-03-24 11:50:00,32.7,21.6,30.13,East,101,6.0,14.0,63,0.00,,,0.01,meteohub,2013-03-24 16:50:00,
2013-03-24 11:55:00,32.7,21.2,30.13,ENE,68,10.0,14.0,62,0.00,,,0.01,meteohub,2013-03-24 16:55:00,
2013-03-24 12:00:00,33.1,21.6,30.13,ENE,63,9.0,15.0,62,0.00,,,0.01,meteohub,2013-03-24 17:00:00,
2013-03-24 12:05:00,33.3,21.7,30.13,ENE,69,9.0,15.0,62,0.00,,,0.01,meteohub,2013-03-24 17:05:00,
2013-03-24 12:10:00,33.3,20.8,30.13,NE,55,9.0,15.0,60,0.00,,,0.01,meteohub,2013-03-24 17:10:00,
2013-03-24 12:15:00,33.1,21.0,30.13,East,88,6.0,15.0,61,0.00,,,0.01,meteohub,2013-03-24 17:15:00,
2013-03-24 12:20:00,32.9,20.8,30.13,East,79,5.0,17.0,61,0.00,,,0.01,meteohub,2013-03-24 17:20:00,
2013-03-24 12:25:00,32.7,20.8,30.13,ENE,61,7.0,18.0,61,0.00,,,0.01,meteohub,2013-03-24 17:25:00,
2013-03-24 12:30:00,33.1,21.0,30.13,ENE,60,11.0,18.0,61,0.00,,,0.01,meteohub,2013-03-24 17:30:00,
2013-03-24 12:35:00,33.3,21.2,30.13,ENE,78,12.0,17.0,61,0.00,,,0.01,meteohub,2013-03-24 17:35:00,
2013-03-24 12:40:00,33.3,21.2,30.13,East,81,10.0,16.0,61,0.00,,,0.01,meteohub,2013-03-24 17:40:00,
2013-03-24 12:45:00,33.3,21.2,30.13,East,94,7.0,16.0,61,0.00,,,0.01,meteohub,2013-03-24 17:45:00,
2013-03-24 12:50:00,32.7,20.8,30.13,ENE,78,4.0,16.0,61,0.00,,,0.01,meteohub,2013-03-24 17:50:00,
2013-03-24 12:55:00,32.7,21.2,30.13,ENE,74,7.0,16.0,62,0.00,,,0.01,meteohub,2013-03-24 17:55:00,
2013-03-24 13:00:00,32.7,21.6,30.13,East,96,5.0,16.0,63,0.00,,,0.01,meteohub,2013-03-24 18:00:00,
2013-03-24 13:05:00,32.5,21.4,30.13,ESE,115,3.0,15.0,63,0.00,,,0.01,meteohub,2013-03-24 18:05:00,
2013-03-24 13:10:00,32.7,21.6,30.13,ESE,108,10.0,14.0,63,0.00,,,0.01,meteohub,2013-03-24 18:10:00,
2013-03-24 13:15:00,32.4,21.2,30.13,ESE,105,9.0,14.0,63,0.00,,,0.01,meteohub,2013-03-24 18:15:00,
2013-03-24 13:20:00,32.4,21.2,30.13,ESE,113,1.0,15.0,63,0.00,,,0.01,meteohub,2013-03-24 18:20:00,
2013-03-24 13:25:00,32.2,21.0,30.13,ESE,107,5.0,15.0,63,0.00,,,0.01,meteohub,2013-03-24 18:25:00,
2013-03-24 13:30:00,32.4,21.6,30.14,ESE,112,3.0,13.0,64,0.00,,,0.01,meteohub,2013-03-24 18:30:00,
2013-03-24 13:35:00,32.4,21.2,30.13,SE,133,9.0,13.0,63,0.00,,,0.01,meteohub,2013-03-24 18:35:00,
2013-03-24 13:40:00,32.2,21.4,30.13,ESE,105,3.0,13.0,64,0.00,,,0.01,meteohub,2013-03-24 18:40:00,
2013-03-24 13:45:00,32.0,21.2,30.12,SE,126,2.0,13.0,64,0.00,,,0.01,meteohub,2013-03-24 18:45:00,
2013-03-24 13:50:00,32.2,21.7,30.12,East,96,5.0,11.0,65,0.00,,,0.01,meteohub,2013-03-24 18:50:00,
2013-03-24 13:55:00,32.5,22.1,30.12,SE,128,3.0,11.0,65,0.00,,,0.01,meteohub,2013-03-24 18:55:00,
2013-03-24 14:00:00,32.7,21.9,30.12,ESE,109,6.0,11.0,64,0.00,,,0.01,meteohub,2013-03-24 19:00:00,
2013-03-24 14:05:00,32.5,21.7,30.12,ENE,67,5.0,11.0,64,0.00,,,0.01,meteohub,2013-03-24 19:05:00,
2013-03-24 14:10:00,32.4,21.9,30.12,East,92,4.0,16.0,65,0.00,,,0.01,meteohub,2013-03-24 19:10:00,
2013-03-24 14:16:00,32.4,21.9,30.12,East,90,9.0,16.0,65,0.00,,,0.01,meteohub,2013-03-24 19:16:00,
2013-03-24 14:21:00,32.5,22.1,30.11,East,94,4.0,16.0,65,0.00,,,0.01,meteohub,2013-03-24 19:21:00,
2013-03-24 14:26:00,32.4,21.9,30.11,East,89,7.0,14.0,65,0.00,,,0.01,meteohub,2013-03-24 19:26:00,
2013-03-24 14:31:00,32.4,22.3,30.11,ENE,78,9.0,16.0,66,0.00,,,0.01,meteohub,2013-03-24 19:31:00,
2013-03-24 14:36:00,32.5,22.5,30.11,ENE,78,0.0,16.0,66,0.00,,,0.01,meteohub,2013-03-24 19:36:00,
2013-03-24 14:41:00,32.7,22.6,30.11,ESE,114,3.0,12.0,66,0.00,,,0.01,meteohub,2013-03-24 19:41:00,
2013-03-24 14:46:00,32.4,21.9,30.11,East,100,7.0,13.0,65,0.00,,,0.01,meteohub,2013-03-24 19:46:00,
2013-03-24 14:51:00,32.2,22.5,30.11,East,94,3.0,16.0,67,0.00,,,0.01,meteohub,2013-03-24 19:51:00,
2013-03-24 14:57:00,32.4,22.3,30.11,East,94,4.0,16.0,66,0.00,,,0.01,meteohub,2013-03-24 19:57:00,
2013-03-24 15:02:00,32.2,22.5,30.10,East,94,3.0,15.0,67,0.00,,,0.01,meteohub,2013-03-24 20:02:00,
2013-03-24 15:07:00,32.2,22.8,30.11,ESE,103,5.0,15.0,68,0.00,,,0.01,meteohub,2013-03-24 20:07:00,
2013-03-24 15:12:00,32.2,22.8,30.10,East,84,6.0,14.0,68,0.00,,,0.01,meteohub,2013-03-24 20:12:00,
2013-03-24 15:17:00,32.2,22.8,30.10,ESE,104,4.0,15.0,68,0.00,,,0.01,meteohub,2013-03-24 20:17:00,
2013-03-24 15:22:00,32.0,22.6,30.10,ESE,110,7.0,15.0,68,0.00,,,0.01,meteohub,2013-03-24 20:22:00,
2013-03-24 15:27:00,32.0,23.0,30.10,East,94,4.0,17.0,69,0.00,,,0.01,meteohub,2013-03-24 20:27:00,
2013-03-24 15:32:00,32.0,22.6,30.10,East,96,7.0,17.0,68,0.00,,,0.01,meteohub,2013-03-24 20:32:00,
2013-03-24 15:37:00,32.2,23.2,30.10,ESE,121,10.0,15.0,69,0.00,,,0.01,meteohub,2013-03-24 20:37:00,
2013-03-24 15:42:00,32.2,22.8,30.10,ESE,115,8.0,15.0,68,0.00,,,0.01,meteohub,2013-03-24 20:42:00,
2013-03-24 15:47:00,32.2,22.8,30.10,East,96,6.0,16.0,68,0.00,,,0.01,meteohub,2013-03-24 20:47:00,
2013-03-24 15:52:00,32.4,23.0,30.10,ESE,112,6.0,16.0,68,0.00,,,0.01,meteohub,2013-03-24 20:52:00,
2013-03-24 15:57:00,32.4,23.0,30.10,ENE,67,16.0,17.0,68,0.00,,,0.01,meteohub,2013-03-24 20:57:00,
2013-03-24 16:02:00,32.2,23.2,30.10,East,90,10.0,17.0,69,0.00,,,0.01,meteohub,2013-03-24 21:02:00,
2013-03-24 16:07:00,32.2,23.2,30.10,East,86,9.0,16.0,69,0.00,,,0.01,meteohub,2013-03-24 21:07:00,
2013-03-24 16:12:00,31.8,22.5,30.10,East,100,14.0,18.0,68,0.00,,,0.01,meteohub,2013-03-24 21:12:00,
2013-03-24 16:17:00,31.8,22.8,30.10,East,101,7.0,18.0,69,0.00,,,0.01,meteohub,2013-03-24 21:17:00,
2013-03-24 16:22:00,31.8,22.8,30.10,ESE,115,7.0,18.0,69,0.00,,,0.01,meteohub,2013-03-24 21:22:00,
2013-03-24 16:27:00,31.8,23.2,30.10,ENE,78,10.0,19.0,70,0.00,,,0.01,meteohub,2013-03-24 21:27:00,
2013-03-24 16:32:00,32.0,23.0,30.10,ESE,106,7.0,19.0,69,0.00,,,0.01,meteohub,2013-03-24 21:32:00,
2013-03-24 16:37:00,31.8,22.8,30.10,East,94,9.0,19.0,69,0.00,,,0.01,meteohub,2013-03-24 21:37:00,
2013-03-24 16:42:00,32.0,23.0,30.10,East,87,7.0,16.0,69,0.00,,,0.01,meteohub,2013-03-24 21:42:00,
2013-03-24 16:48:00,31.8,22.8,30.10,East,95,14.0,16.0,69,0.00,,,0.01,meteohub,2013-03-24 21:48:00,
2013-03-24 16:53:00,31.8,23.2,30.10,East,98,6.0,14.0,70,0.00,,,0.01,meteohub,2013-03-24 21:53:00,
2013-03-24 16:58:00,31.8,22.8,30.11,ESE,109,7.0,15.0,69,0.00,,,0.01,meteohub,2013-03-24 21:58:00,
2013-03-24 17:02:00,31.8,23.2,30.11,ESE,112,3.0,15.0,70,0.00,,,0.01,meteohub,2013-03-24 22:02:00,
2013-03-24 17:07:00,31.8,23.2,30.11,East,94,7.0,15.0,70,0.00,,,0.01,meteohub,2013-03-24 22:07:00,
2013-03-24 17:13:00,31.8,23.2,30.11,ESE,102,4.0,15.0,70,0.00,,,0.01,meteohub,2013-03-24 22:13:00,
2013-03-24 17:18:00,32.0,23.4,30.11,East,85,6.0,14.0,70,0.00,,,0.01,meteohub,2013-03-24 22:18:00,
2013-03-24 17:23:00,32.0,23.4,30.11,East,92,3.0,11.0,70,0.00,,,0.01,meteohub,2013-03-24 22:23:00,
2013-03-24 17:28:00,32.2,23.2,30.11,East,91,3.0,11.0,69,0.00,,,0.01,meteohub,2013-03-24 22:28:00,
2013-03-24 17:33:00,32.2,23.5,30.11,East,90,5.0,11.0,70,0.00,,,0.01,meteohub,2013-03-24 22:33:00,
2013-03-24 17:38:00,32.2,23.2,30.11,East,95,5.0,11.0,69,0.00,,,0.01,meteohub,2013-03-24 22:38:00,
2013-03-24 17:43:00,32.2,23.2,30.11,ENE,76,10.0,11.0,69,0.00,,,0.01,meteohub,2013-03-24 22:43:00,
2013-03-24 17:48:00,32.2,22.8,30.11,East,100,7.0,12.0,68,0.00,,,0.01,meteohub,2013-03-24 22:48:00,
2013-03-24 17:53:00,32.2,22.8,30.11,East,99,5.0,14.0,68,0.00,,,0.01,meteohub,2013-03-24 22:53:00,
2013-03-24 17:58:00,32.2,22.8,30.11,East,82,5.0,14.0,68,0.00,,,0.01,meteohub,2013-03-24 22:58:00,
2013-03-24 18:03:00,32.2,22.8,30.11,ENE,76,7.0,14.0,68,0.00,,,0.01,meteohub,2013-03-24 23:03:00,
2013-03-24 18:08:00,32.2,22.8,30.11,East,87,6.0,11.0,68,0.00,,,0.01,meteohub,2013-03-24 23:08:00,
2013-03-24 18:13:00,32.2,22.8,30.11,East,91,6.0,11.0,68,0.00,,,0.01,meteohub,2013-03-24 23:13:00,
2013-03-24 18:18:00,32.4,23.0,30.11,East,82,9.0,11.0,68,0.00,,,0.01,meteohub,2013-03-24 23:18:00,
2013-03-24 18:23:00,32.4,23.0,30.11,East,99,3.0,11.0,68,0.00,,,0.01,meteohub,2013-03-24 23:23:00,
2013-03-24 18:28:00,32.5,22.8,30.12,ENE,71,14.0,14.0,67,0.00,,,0.01,meteohub,2013-03-24 23:28:00,
2013-03-24 18:33:00,32.5,22.1,30.12,ESE,123,3.0,14.0,65,0.00,,,0.01,meteohub,2013-03-24 23:33:00,
2013-03-24 18:38:00,32.5,22.5,30.12,East,87,10.0,14.0,66,0.00,,,0.01,meteohub,2013-03-24 23:38:00,
2013-03-24 18:43:00,32.5,22.5,30.12,East,95,13.0,14.0,66,0.00,,,0.01,meteohub,2013-03-24 23:43:00,
2013-03-24 18:48:00,32.4,22.3,30.12,ENE,72,10.0,18.0,66,0.00,,,0.01,meteohub,2013-03-24 23:48:00,
2013-03-24 18:53:00,32.2,22.5,30.12,East,85,12.0,18.0,67,0.00,,,0.01,meteohub,2013-03-24 23:53:00,
2013-03-24 18:58:00,32.2,22.5,30.13,ESE,105,4.0,18.0,67,0.00,,,0.01,meteohub,2013-03-24 23:58:00,
2013-03-24 19:03:00,32.2,22.8,30.13,East,93,0.0,14.0,68,0.00,,,0.01,meteohub,2013-03-25 00:03:00,
2013-03-24 19:08:00,32.2,22.8,30.13,East,98,5.0,12.0,68,0.00,,,0.01,meteohub,2013-03-25 00:08:00,
2013-03-24 19:13:00,32.0,23.0,30.13,East,83,8.0,11.0,69,0.00,,,0.01,meteohub,2013-03-25 00:13:00,
2013-03-24 19:18:00,31.8,23.2,30.13,ENE,74,6.0,10.0,70,0.00,,,0.01,meteohub,2013-03-25 00:18:00,
2013-03-24 19:23:00,31.8,23.2,30.13,ENE,74,4.0,11.0,70,0.00,,,0.01,meteohub,2013-03-25 00:23:00,
2013-03-24 19:28:00,31.6,23.0,30.14,East,80,6.0,12.0,70,0.00,,,0.01,meteohub,2013-03-25 00:28:00,
2013-03-24 19:33:00,31.6,23.4,30.14,East,86,6.0,12.0,71,0.00,,,0.01,meteohub,2013-03-25 00:33:00,
2013-03-24 19:38:00,31.5,23.5,30.14,East,81,9.0,11.0,72,0.00,,,0.01,meteohub,2013-03-25 00:38:00,
2013-03-24 19:43:00,31.3,23.7,30.14,East,79,7.0,11.0,73,0.00,,,0.01,meteohub,2013-03-25 00:43:00,
2013-03-24 19:48:00,31.1,23.7,30.15,East,85,5.0,11.0,74,0.00,,,0.01,meteohub,2013-03-25 00:48:00,
2013-03-24 19:53:00,30.9,23.9,30.14,ENE,71,4.0,11.0,75,0.00,,,0.01,meteohub,2013-03-25 00:53:00,
2013-03-24 19:58:00,30.7,23.7,30.15,East,81,7.0,10.0,75,0.00,,,0.01,meteohub,2013-03-25 00:58:00,
2013-03-24 20:03:00,30.6,23.9,30.15,East,82,5.0,12.0,76,0.00,,,0.01,meteohub,2013-03-25 01:03:00,
2013-03-24 20:08:00,30.6,23.9,30.15,ENE,75,5.0,12.0,76,0.00,,,0.01,meteohub,2013-03-25 01:08:00,
2013-03-24 20:13:00,30.4,24.1,30.15,ENE,78,6.0,11.0,77,0.00,,,0.01,meteohub,2013-03-25 01:13:00,
2013-03-24 20:18:00,30.0,24.1,30.15,ENE,78,3.0,10.0,78,0.00,,,0.01,meteohub,2013-03-25 01:18:00,
2013-03-24 20:23:00,30.0,24.1,30.15,ENE,78,5.0,10.0,78,0.00,,,0.01,meteohub,2013-03-25 01:23:00,
2013-03-24 20:28:00,29.8,24.1,30.15,East,87,7.0,10.0,79,0.00,,,0.01,meteohub,2013-03-25 01:28:00,
2013-03-24 20:33:00,29.8,24.1,30.16,ENE,69,4.0,11.0,79,0.00,,,0.01,meteohub,2013-03-25 01:33:00,
2013-03-24 20:38:00,29.7,23.9,30.16,ENE,74,7.0,11.0,79,0.00,,,0.01,meteohub,2013-03-25 01:38:00,
2013-03-24 20:43:00,29.7,24.3,30.16,ENE,71,6.0,11.0,80,0.00,,,0.01,meteohub,2013-03-25 01:43:00,
2013-03-24 20:48:00,29.5,24.1,30.16,East,80,7.0,10.0,80,0.00,,,0.01,meteohub,2013-03-25 01:48:00,
2013-03-24 20:53:00,29.3,24.3,30.16,ENE,71,6.0,10.0,81,0.00,,,0.01,meteohub,2013-03-25 01:53:00,
2013-03-24 20:58:00,29.3,24.3,30.16,ENE,69,5.0,12.0,81,0.00,,,0.01,meteohub,2013-03-25 01:58:00,
2013-03-24 21:03:00,29.1,24.1,30.16,ENE,71,7.0,12.0,81,0.00,,,0.01,meteohub,2013-03-25 02:03:00,
2013-03-24 21:08:00,29.1,24.3,30.16,East,79,9.0,12.0,82,0.00,,,0.01,meteohub,2013-03-25 02:08:00,
2013-03-24 21:13:00,29.1,24.3,30.16,East,80,7.0,11.0,82,0.00,,,0.01,meteohub,2013-03-25 02:13:00,
2013-03-24 21:19:00,29.1,24.3,30.16,ENE,66,4.0,11.0,82,0.00,,,0.01,meteohub,2013-03-25 02:19:00,
2013-03-24 21:24:00,29.1,24.3,30.16,ENE,68,4.0,12.0,82,0.00,,,0.01,meteohub,2013-03-25 02:24:00,
2013-03-24 21:29:00,28.9,24.4,30.16,ENE,57,9.0,12.0,83,0.00,,,0.01,meteohub,2013-03-25 02:29:00,
2013-03-24 21:34:00,28.9,24.4,30.16,ENE,67,4.0,12.0,83,0.00,,,0.01,meteohub,2013-03-25 02:34:00,
2013-03-24 21:39:00,28.9,24.8,30.16,ENE,63,8.0,11.0,84,0.00,,,0.01,meteohub,2013-03-25 02:39:00,
2013-03-24 21:44:00,28.9,24.8,30.16,NE,41,13.0,13.0,84,0.00,,,0.01,meteohub,2013-03-25 02:44:00,
2013-03-24 21:49:00,28.9,24.8,30.16,ENE,60,10.0,12.0,84,0.00,,,0.01,meteohub,2013-03-25 02:49:00,
2013-03-24 21:54:00,28.9,24.8,30.16,NE,53,9.0,13.0,84,0.00,,,0.01,meteohub,2013-03-25 02:54:00,
2013-03-24 21:59:00,28.8,24.6,30.17,ENE,67,7.0,13.0,84,0.00,,,0.01,meteohub,2013-03-25 02:59:00,
2013-03-24 22:04:00,28.8,24.6,30.17,NE,49,6.0,12.0,84,0.00,,,0.01,meteohub,2013-03-25 03:04:00,
2013-03-24 22:09:00,28.8,24.6,30.17,NE,49,8.0,12.0,84,0.00,,,0.01,meteohub,2013-03-25 03:09:00,
2013-03-24 22:14:00,28.8,24.6,30.17,ENE,60,5.0,13.0,84,0.00,,,0.01,meteohub,2013-03-25 03:14:00,
2013-03-24 22:19:00,28.8,24.6,30.17,NE,49,9.0,13.0,84,0.00,,,0.01,meteohub,2013-03-25 03:19:00,
2013-03-24 22:24:00,28.8,24.6,30.17,ENE,72,9.0,12.0,84,0.00,,,0.01,meteohub,2013-03-25 03:24:00,
2013-03-24 22:29:00,28.6,24.4,30.17,ENE,59,5.0,11.0,84,0.00,,,0.01,meteohub,2013-03-25 03:29:00,
2013-03-24 22:34:00,28.6,24.4,30.17,ENE,69,6.0,12.0,84,0.00,,,0.01,meteohub,2013-03-25 03:34:00,
2013-03-24 22:39:00,28.6,24.6,30.17,ENE,65,7.0,12.0,85,0.00,,,0.01,meteohub,2013-03-25 03:39:00,
2013-03-24 22:44:00,28.6,24.4,30.17,ENE,63,8.0,10.0,84,0.00,,,0.01,meteohub,2013-03-25 03:44:00,
2013-03-24 22:49:00,28.6,24.4,30.17,ENE,65,5.0,9.0,84,0.00,,,0.01,meteohub,2013-03-25 03:49:00,
2013-03-24 22:54:00,28.6,24.4,30.17,ENE,65,7.0,10.0,84,0.00,,,0.01,meteohub,2013-03-25 03:54:00,
2013-03-24 22:59:00,28.6,24.4,30.17,ENE,71,3.0,10.0,84,0.00,,,0.01,meteohub,2013-03-25 03:59:00,
2013-03-24 23:00:00,28.6,24.4,30.17,ENE,71,5.0,10.0,84,0.00,,,0.01,meteohub,2013-03-25 04:00:00,
2013-03-24 23:05:00,28.6,24.4,30.17,ENE,73,4.0,8.0,84,0.00,,,0.01,meteohub,2013-03-25 04:05:00,
2013-03-24 23:10:00,28.8,24.6,30.17,ENE,64,9.0,9.0,84,0.00,,,0.01,meteohub,2013-03-25 04:10:00,
2013-03-24 23:15:00,28.8,24.6,30.16,ENE,57,3.0,8.0,84,0.00,,,0.01,meteohub,2013-03-25 04:15:00,
2013-03-24 23:20:00,28.8,24.3,30.17,NE,56,8.0,10.0,83,0.00,,,0.01,meteohub,2013-03-25 04:20:00,
2013-03-24 23:25:00,28.9,24.4,30.17,ENE,75,7.0,11.0,83,0.00,,,0.01,meteohub,2013-03-25 04:25:00,
2013-03-24 23:30:00,28.8,24.3,30.17,ENE,71,6.0,11.0,83,0.00,,,0.01,meteohub,2013-03-25 04:30:00,
2013-03-24 23:35:00,28.9,24.4,30.17,ENE,75,7.0,11.0,83,0.00,,,0.01,meteohub,2013-03-25 04:35:00,
2013-03-24 23:40:00,28.9,24.1,30.17,ENE,71,9.0,10.0,82,0.00,,,0.01,meteohub,2013-03-25 04:40:00,
2013-03-24 23:45:00,28.9,24.1,30.16,East,82,5.0,11.0,82,0.00,,,0.01,meteohub,2013-03-25 04:45:00,
2013-03-24 23:50:00,28.9,24.1,30.16,ENE,75,6.0,13.0,82,0.00,,,0.01,meteohub,2013-03-25 04:50:00,
2013-03-24 23:55:00,28.9,23.9,30.17,ENE,66,10.0,13.0,81,0.00,,,0.01,meteohub,2013-03-25 04:55:00,